LGL28Y ELLX-LEMH
Flight info
| Callsign | LGL28Y |
|---|---|
| Flight time | 1h 38m |
| Altitude | 37000 |
| Route | RAPOR DCT MEDOX DCT SOSIX DCT NUCIF DCT BUSIL DCT MTL DCT DIVKO UN852 VATIR N852 VERSO L16 SARGO |
| Aircraft | B737/M-SDE2E3FGHIRWXY/LB1 |
Departure
| Time | 2026-04-16 13:55 |
|---|---|
| Airport | Luxembourg-Findel International Airport (ELLX) |
Arrival
| Time | 2026-04-16 15:33 |
|---|---|
| Airport | Menorca Airport (LEMH) |
| Time | Latitude | Longitude | Altitude | Speed | Heading |
|---|---|---|---|---|---|
| 2026-04-16 13:32 | 49.63371 | 6.21738 | 1229 ft | 0 kts | 330° |
| 2026-04-16 13:45 | 49.63370 | 6.21738 | 1229 ft | 1 kts | 329° |
| 2026-04-16 13:46 | 49.63350 | 6.21755 | 1229 ft | 4 kts | 340° |
| 2026-04-16 13:46 | 49.63324 | 6.21763 | 1229 ft | 4 kts | 11° |
| 2026-04-16 13:46 | 49.63306 | 6.21748 | 1229 ft | 1 kts | 60° |
| 2026-04-16 13:48 | 49.63307 | 6.21750 | 1229 ft | 1 kts | 60° |
| 2026-04-16 13:48 | 49.63314 | 6.21770 | 1229 ft | 4 kts | 60° |
| 2026-04-16 13:49 | 49.63333 | 6.21819 | 1229 ft | 7 kts | 60° |
| 2026-04-16 13:49 | 49.63354 | 6.21904 | 1229 ft | 10 kts | 82° |
| 2026-04-16 13:49 | 49.63341 | 6.22019 | 1229 ft | 12 kts | 135° |
| 2026-04-16 13:49 | 49.63267 | 6.22118 | 1227 ft | 16 kts | 136° |
| 2026-04-16 13:50 | 49.63268 | 6.22269 | 1223 ft | 16 kts | 67° |
| 2026-04-16 13:50 | 49.63316 | 6.22424 | 1218 ft | 17 kts | 62° |
| 2026-04-16 13:50 | 49.63375 | 6.22588 | 1214 ft | 17 kts | 60° |
| 2026-04-16 13:50 | 49.63434 | 6.22746 | 1214 ft | 17 kts | 59° |
| 2026-04-16 13:51 | 49.63491 | 6.22899 | 1213 ft | 16 kts | 60° |
| 2026-04-16 13:51 | 49.63545 | 6.23047 | 1213 ft | 15 kts | 60° |
| 2026-04-16 13:51 | 49.63597 | 6.23188 | 1212 ft | 15 kts | 60° |
| 2026-04-16 13:51 | 49.63641 | 6.23305 | 1211 ft | 8 kts | 59° |
| 2026-04-16 13:52 | 49.63653 | 6.23335 | 1211 ft | 1 kts | 59° |
| 2026-04-16 13:52 | 49.63663 | 6.23360 | 1211 ft | 5 kts | 59° |
| 2026-04-16 13:52 | 49.63669 | 6.23425 | 1210 ft | 1 kts | 108° |
| 2026-04-16 13:52 | 49.63663 | 6.23437 | 1210 ft | 1 kts | 132° |
| 2026-04-16 13:53 | 49.63656 | 6.23445 | 1211 ft | 1 kts | 146° |
| 2026-04-16 13:53 | 49.63648 | 6.23452 | 1211 ft | 1 kts | 149° |
| 2026-04-16 13:53 | 49.63626 | 6.23472 | 1212 ft | 7 kts | 150° |
| 2026-04-16 13:53 | 49.63558 | 6.23516 | 1214 ft | 12 kts | 176° |
| 2026-04-16 13:54 | 49.63499 | 6.23463 | 1215 ft | 9 kts | 245° |
| 2026-04-16 13:54 | 49.63479 | 6.23402 | 1214 ft | 7 kts | 240° |
| 2026-04-16 13:54 | 49.63329 | 6.22997 | 1209 ft | 82 kts | 240° |
| 2026-04-16 13:54 | 49.62926 | 6.21944 | 1220 ft | 143 kts | 237° |
| 2026-04-16 13:55 | 49.62411 | 6.20478 | 1713 ft | 161 kts | 244° |
| 2026-04-16 13:55 | 49.61978 | 6.18918 | 2686 ft | 155 kts | 247° |
| 2026-04-16 13:55 | 49.61519 | 6.17470 | 3565 ft | 156 kts | 246° |
| 2026-04-16 13:55 | 49.60971 | 6.15812 | 3848 ft | 190 kts | 238° |
| 2026-04-16 13:56 | 49.60152 | 6.13992 | 4068 ft | 223 kts | 238° |
| 2026-04-16 13:56 | 49.59270 | 6.11848 | 4485 ft | 247 kts | 239° |
| 2026-04-16 13:56 | 49.58384 | 6.09556 | 5386 ft | 250 kts | 239° |
| 2026-04-16 13:56 | 49.57498 | 6.07243 | 6226 ft | 255 kts | 238° |
| 2026-04-16 13:57 | 49.56680 | 6.04781 | 7117 ft | 265 kts | 253° |
| 2026-04-16 13:57 | 49.56641 | 6.01964 | 8133 ft | 269 kts | 280° |
| 2026-04-16 13:57 | 49.57331 | 5.99272 | 9252 ft | 271 kts | 295° |
| 2026-04-16 13:58 | 49.59160 | 5.94064 | 10905 ft | 292 kts | 296° |
| 2026-04-16 13:58 | 49.60140 | 5.91149 | 11274 ft | 315 kts | 293° |
| 2026-04-16 13:58 | 49.60677 | 5.87873 | 12166 ft | 317 kts | 273° |
| 2026-04-16 13:58 | 49.60720 | 5.84474 | 13153 ft | 320 kts | 270° |
| 2026-04-16 13:59 | 49.60718 | 5.81021 | 14060 ft | 326 kts | 270° |
| 2026-04-16 13:59 | 49.60724 | 5.77493 | 14962 ft | 329 kts | 270° |
| 2026-04-16 13:59 | 49.60739 | 5.73954 | 15892 ft | 332 kts | 270° |
| 2026-04-16 13:59 | 49.60760 | 5.70369 | 16804 ft | 337 kts | 271° |
| 2026-04-16 14:00 | 49.60784 | 5.66737 | 17695 ft | 341 kts | 271° |
| 2026-04-16 14:00 | 49.60807 | 5.63041 | 18518 ft | 348 kts | 271° |
| 2026-04-16 14:00 | 49.60829 | 5.59284 | 19309 ft | 351 kts | 271° |
| 2026-04-16 14:00 | 49.60767 | 5.55516 | 20160 ft | 353 kts | 267° |
| 2026-04-16 14:01 | 49.60586 | 5.51717 | 20988 ft | 356 kts | 266° |
| 2026-04-16 14:01 | 49.60389 | 5.47897 | 21779 ft | 360 kts | 266° |
| 2026-04-16 14:01 | 49.60203 | 5.44039 | 22579 ft | 362 kts | 266° |
| 2026-04-16 14:01 | 49.60025 | 5.40230 | 23329 ft | 366 kts | 266° |
| 2026-04-16 14:02 | 49.59839 | 5.36354 | 24039 ft | 369 kts | 266° |
| 2026-04-16 14:02 | 49.59646 | 5.32394 | 24678 ft | 372 kts | 267° |
| 2026-04-16 14:02 | 49.59356 | 5.28419 | 25290 ft | 377 kts | 258° |
| 2026-04-16 14:02 | 49.58321 | 5.24665 | 25891 ft | 386 kts | 240° |
| 2026-04-16 14:03 | 49.56567 | 5.21484 | 26500 ft | 397 kts | 226° |
| 2026-04-16 14:03 | 49.54243 | 5.19086 | 27026 ft | 412 kts | 208° |
| 2026-04-16 14:03 | 49.51494 | 5.17632 | 27586 ft | 421 kts | 201° |
| 2026-04-16 14:03 | 49.48660 | 5.16392 | 28094 ft | 426 kts | 200° |
| 2026-04-16 14:04 | 49.45782 | 5.15182 | 28579 ft | 431 kts | 200° |
| 2026-04-16 14:04 | 49.42877 | 5.13939 | 29059 ft | 435 kts | 201° |
| 2026-04-16 14:04 | 49.39956 | 5.12654 | 29517 ft | 439 kts | 201° |
| 2026-04-16 14:04 | 49.37007 | 5.11329 | 29943 ft | 444 kts | 201° |
| 2026-04-16 14:05 | 49.34035 | 5.09988 | 30383 ft | 448 kts | 202° |
| 2026-04-16 14:05 | 49.31029 | 5.08677 | 30795 ft | 451 kts | 201° |
| 2026-04-16 14:05 | 49.27980 | 5.07442 | 31219 ft | 453 kts | 200° |
| 2026-04-16 14:05 | 49.24920 | 5.06243 | 31617 ft | 456 kts | 200° |
| 2026-04-16 14:06 | 49.21841 | 5.05047 | 32006 ft | 457 kts | 200° |
| 2026-04-16 14:06 | 49.18758 | 5.03845 | 32455 ft | 457 kts | 200° |
| 2026-04-16 14:06 | 49.15688 | 5.02643 | 32996 ft | 454 kts | 200° |
| 2026-04-16 14:06 | 49.12639 | 5.01444 | 33549 ft | 451 kts | 201° |
| 2026-04-16 14:07 | 49.09642 | 5.00262 | 34032 ft | 450 kts | 201° |
| 2026-04-16 14:07 | 49.06572 | 4.99047 | 34443 ft | 449 kts | 201° |
| 2026-04-16 14:07 | 49.03580 | 4.97863 | 34808 ft | 449 kts | 201° |
| 2026-04-16 14:07 | 49.00563 | 4.96671 | 35178 ft | 448 kts | 201° |
| 2026-04-16 14:08 | 48.97548 | 4.95482 | 35526 ft | 448 kts | 201° |
| 2026-04-16 14:08 | 48.94531 | 4.94294 | 35856 ft | 448 kts | 201° |
| 2026-04-16 14:08 | 48.91511 | 4.93106 | 36177 ft | 448 kts | 201° |
| 2026-04-16 14:08 | 48.88494 | 4.91921 | 36519 ft | 447 kts | 201° |
| 2026-04-16 14:09 | 48.85482 | 4.90740 | 36861 ft | 446 kts | 201° |
| 2026-04-16 14:09 | 48.82475 | 4.89563 | 37181 ft | 446 kts | 201° |
| 2026-04-16 14:09 | 48.76405 | 4.87185 | 37247 ft | 452 kts | 201° |
| 2026-04-16 14:10 | 48.70337 | 4.84834 | 37225 ft | 446 kts | 199° |
| 2026-04-16 14:10 | 48.64154 | 4.83855 | 37249 ft | 454 kts | 188° |
| 2026-04-16 14:11 | 48.57819 | 4.83640 | 37242 ft | 455 kts | 187° |
| 2026-04-16 14:11 | 48.51482 | 4.83427 | 37246 ft | 455 kts | 187° |
| 2026-04-16 14:12 | 48.45085 | 4.83149 | 37265 ft | 466 kts | 187° |
| 2026-04-16 14:12 | 48.38543 | 4.82835 | 37250 ft | 471 kts | 187° |
| 2026-04-16 14:13 | 48.31998 | 4.82525 | 37237 ft | 469 kts | 187° |
| 2026-04-16 14:13 | 48.25492 | 4.82218 | 37241 ft | 467 kts | 187° |
| 2026-04-16 14:14 | 48.19050 | 4.81913 | 37249 ft | 465 kts | 187° |
| 2026-04-16 14:14 | 48.12579 | 4.81607 | 37254 ft | 465 kts | 187° |
| 2026-04-16 14:15 | 48.06120 | 4.81301 | 37244 ft | 464 kts | 187° |
| 2026-04-16 14:15 | 47.99674 | 4.80997 | 37249 ft | 463 kts | 187° |
| 2026-04-16 14:16 | 47.93228 | 4.80694 | 37252 ft | 464 kts | 187° |
| 2026-04-16 14:16 | 47.86773 | 4.80390 | 37241 ft | 464 kts | 187° |
| 2026-04-16 14:17 | 47.80302 | 4.80088 | 37246 ft | 465 kts | 187° |
| 2026-04-16 14:17 | 47.73825 | 4.79786 | 37241 ft | 466 kts | 187° |
| 2026-04-16 14:18 | 47.67378 | 4.79486 | 37236 ft | 467 kts | 186° |
| 2026-04-16 14:18 | 47.60881 | 4.79185 | 37246 ft | 468 kts | 186° |
| 2026-04-16 14:19 | 47.54365 | 4.78883 | 37244 ft | 468 kts | 186° |
| 2026-04-16 14:19 | 47.47844 | 4.78582 | 37233 ft | 468 kts | 186° |
| 2026-04-16 14:20 | 47.41332 | 4.78283 | 37240 ft | 468 kts | 186° |
| 2026-04-16 14:20 | 47.34844 | 4.77985 | 37237 ft | 468 kts | 186° |
| 2026-04-16 14:21 | 47.28292 | 4.77685 | 37224 ft | 468 kts | 186° |
| 2026-04-16 14:21 | 47.21785 | 4.77387 | 37233 ft | 467 kts | 186° |
| 2026-04-16 14:22 | 47.15324 | 4.77092 | 37239 ft | 467 kts | 186° |
| 2026-04-16 14:22 | 47.08832 | 4.76797 | 37242 ft | 466 kts | 186° |
| 2026-04-16 14:23 | 47.02350 | 4.76443 | 37237 ft | 465 kts | 186° |
| 2026-04-16 14:23 | 46.95874 | 4.76047 | 37230 ft | 465 kts | 186° |
| 2026-04-16 14:24 | 46.89404 | 4.75661 | 37241 ft | 465 kts | 186° |
| 2026-04-16 14:24 | 46.82969 | 4.75284 | 37227 ft | 465 kts | 186° |
| 2026-04-16 14:25 | 46.76497 | 4.74909 | 37235 ft | 465 kts | 186° |
| 2026-04-16 14:25 | 46.70016 | 4.74534 | 37229 ft | 466 kts | 186° |
| 2026-04-16 14:26 | 46.63536 | 4.74159 | 37233 ft | 466 kts | 186° |
| 2026-04-16 14:26 | 46.57038 | 4.73784 | 37235 ft | 466 kts | 186° |
| 2026-04-16 14:27 | 46.50554 | 4.73411 | 37234 ft | 467 kts | 186° |
| 2026-04-16 14:27 | 46.44065 | 4.73039 | 37216 ft | 466 kts | 186° |
| 2026-04-16 14:28 | 46.37581 | 4.72667 | 37235 ft | 466 kts | 186° |
| 2026-04-16 14:28 | 46.31090 | 4.72297 | 37237 ft | 467 kts | 186° |
| 2026-04-16 14:29 | 46.24617 | 4.72206 | 37220 ft | 469 kts | 182° |
| 2026-04-16 14:29 | 46.18056 | 4.72487 | 37230 ft | 469 kts | 181° |
| 2026-04-16 14:30 | 46.11571 | 4.72784 | 37229 ft | 469 kts | 181° |
| 2026-04-16 14:30 | 46.05046 | 4.73036 | 37226 ft | 469 kts | 181° |
| 2026-04-16 14:31 | 45.99585 | 4.73225 | 37226 ft | 469 kts | 181° |
| 2026-04-16 14:31 | 45.93102 | 4.73443 | 37224 ft | 469 kts | 181° |
| 2026-04-16 14:32 | 45.86566 | 4.73662 | 37206 ft | 469 kts | 181° |
| 2026-04-16 14:32 | 45.80030 | 4.73882 | 37213 ft | 470 kts | 181° |
| 2026-04-16 14:33 | 45.73490 | 4.74103 | 37216 ft | 471 kts | 181° |
| 2026-04-16 14:33 | 45.66933 | 4.74324 | 37207 ft | 471 kts | 181° |
| 2026-04-16 14:34 | 45.60375 | 4.74544 | 37219 ft | 471 kts | 181° |
| 2026-04-16 14:34 | 45.53854 | 4.74763 | 37213 ft | 472 kts | 181° |
| 2026-04-16 14:35 | 45.47293 | 4.74983 | 37206 ft | 472 kts | 181° |
| 2026-04-16 14:35 | 45.40722 | 4.75202 | 37211 ft | 471 kts | 181° |
| 2026-04-16 14:36 | 45.34152 | 4.75420 | 37202 ft | 472 kts | 181° |
| 2026-04-16 14:36 | 45.27579 | 4.75638 | 37186 ft | 472 kts | 181° |
| 2026-04-16 14:37 | 45.21010 | 4.75856 | 37203 ft | 472 kts | 181° |
| 2026-04-16 14:37 | 45.14438 | 4.76073 | 37192 ft | 472 kts | 181° |
| 2026-04-16 14:38 | 45.07861 | 4.76291 | 37171 ft | 472 kts | 181° |
| 2026-04-16 14:38 | 45.01338 | 4.76505 | 37182 ft | 472 kts | 181° |
| 2026-04-16 14:39 | 44.94763 | 4.76721 | 37163 ft | 473 kts | 181° |
| 2026-04-16 14:39 | 44.88172 | 4.76937 | 37150 ft | 473 kts | 180° |
| 2026-04-16 14:40 | 44.81589 | 4.77152 | 37161 ft | 473 kts | 180° |
| 2026-04-16 14:40 | 44.75000 | 4.77367 | 37161 ft | 474 kts | 180° |
| 2026-04-16 14:41 | 44.68407 | 4.77581 | 37154 ft | 474 kts | 180° |
| 2026-04-16 14:41 | 44.61811 | 4.77795 | 37155 ft | 474 kts | 180° |
| 2026-04-16 14:42 | 44.55249 | 4.78007 | 37135 ft | 474 kts | 181° |
| 2026-04-16 14:42 | 44.48655 | 4.78059 | 37129 ft | 474 kts | 182° |
| 2026-04-16 14:43 | 44.42058 | 4.78006 | 37127 ft | 474 kts | 182° |
| 2026-04-16 14:43 | 44.35458 | 4.77964 | 37131 ft | 474 kts | 182° |
| 2026-04-16 14:44 | 44.28853 | 4.77943 | 37132 ft | 474 kts | 181° |
| 2026-04-16 14:44 | 44.22253 | 4.77931 | 37133 ft | 474 kts | 181° |
| 2026-04-16 14:45 | 44.15695 | 4.77918 | 37130 ft | 474 kts | 181° |
| 2026-04-16 14:45 | 44.09104 | 4.77905 | 37126 ft | 474 kts | 181° |
| 2026-04-16 14:46 | 44.02501 | 4.77892 | 37131 ft | 474 kts | 181° |
| 2026-04-16 14:46 | 43.95909 | 4.77879 | 37104 ft | 473 kts | 181° |
| 2026-04-16 14:47 | 43.89321 | 4.77866 | 37101 ft | 473 kts | 181° |
| 2026-04-16 14:47 | 43.82732 | 4.77852 | 37105 ft | 474 kts | 181° |
| 2026-04-16 14:48 | 43.76132 | 4.77839 | 37112 ft | 474 kts | 181° |
| 2026-04-16 14:48 | 43.69534 | 4.77826 | 37105 ft | 475 kts | 181° |
| 2026-04-16 14:49 | 43.62920 | 4.77813 | 37111 ft | 475 kts | 181° |
| 2026-04-16 14:49 | 43.56344 | 4.77800 | 37106 ft | 475 kts | 181° |
| 2026-04-16 14:50 | 43.49688 | 4.77786 | 37103 ft | 476 kts | 181° |
| 2026-04-16 14:50 | 43.43109 | 4.77773 | 37109 ft | 476 kts | 181° |
| 2026-04-16 14:51 | 43.36435 | 4.77760 | 37109 ft | 476 kts | 181° |
| 2026-04-16 14:51 | 43.29845 | 4.77747 | 37112 ft | 477 kts | 181° |
| 2026-04-16 14:53 | 43.06608 | 4.77094 | 37129 ft | 476 kts | 194° |
| 2026-04-16 14:53 | 43.03438 | 4.75850 | 37135 ft | 474 kts | 202° |
| 2026-04-16 14:54 | 42.97574 | 4.71816 | 37141 ft | 471 kts | 212° |
| 2026-04-16 14:54 | 42.91910 | 4.67410 | 37135 ft | 472 kts | 212° |
| 2026-04-16 14:55 | 42.86178 | 4.63007 | 37142 ft | 472 kts | 211° |
| 2026-04-16 14:55 | 42.80424 | 4.58654 | 37141 ft | 473 kts | 211° |
| 2026-04-16 14:56 | 42.74664 | 4.54325 | 37140 ft | 472 kts | 211° |
| 2026-04-16 14:56 | 42.68915 | 4.50014 | 37143 ft | 471 kts | 211° |
| 2026-04-16 14:57 | 42.63175 | 4.45716 | 37140 ft | 470 kts | 211° |
| 2026-04-16 14:57 | 42.57477 | 4.41457 | 37144 ft | 470 kts | 211° |
| 2026-04-16 14:58 | 42.48886 | 4.35052 | 37143 ft | 470 kts | 211° |
| 2026-04-16 14:59 | 42.43150 | 4.30787 | 37152 ft | 470 kts | 211° |
| 2026-04-16 14:59 | 42.37419 | 4.26535 | 37153 ft | 470 kts | 211° |
| 2026-04-16 15:00 | 42.31714 | 4.22310 | 37153 ft | 471 kts | 211° |
| 2026-04-16 15:00 | 42.25963 | 4.18061 | 37151 ft | 471 kts | 211° |
| 2026-04-16 15:01 | 42.20213 | 4.13820 | 37160 ft | 471 kts | 211° |
| 2026-04-16 15:01 | 42.14462 | 4.09587 | 37159 ft | 471 kts | 211° |
| 2026-04-16 15:02 | 42.08703 | 4.05352 | 37161 ft | 471 kts | 211° |
| 2026-04-16 15:02 | 42.02956 | 4.01131 | 37164 ft | 471 kts | 211° |
| 2026-04-16 15:03 | 41.97194 | 3.96907 | 37164 ft | 471 kts | 211° |
| 2026-04-16 15:03 | 41.91253 | 3.93183 | 37158 ft | 474 kts | 199° |
| 2026-04-16 15:04 | 41.84818 | 3.91466 | 37169 ft | 476 kts | 190° |
| 2026-04-16 15:04 | 41.78355 | 3.90091 | 37162 ft | 463 kts | 190° |
| 2026-04-16 15:05 | 41.72019 | 3.88659 | 37187 ft | 461 kts | 191° |
| 2026-04-16 15:05 | 41.65694 | 3.87183 | 37180 ft | 461 kts | 191° |
| 2026-04-16 15:06 | 41.59365 | 3.85715 | 37179 ft | 462 kts | 191° |
| 2026-04-16 15:06 | 41.52999 | 3.84258 | 36518 ft | 466 kts | 191° |
| 2026-04-16 15:06 | 41.49810 | 3.83532 | 35903 ft | 465 kts | 191° |
| 2026-04-16 15:07 | 41.46622 | 3.82807 | 35195 ft | 465 kts | 191° |
| 2026-04-16 15:07 | 41.43427 | 3.82080 | 34477 ft | 467 kts | 191° |
| 2026-04-16 15:07 | 41.40214 | 3.81349 | 33650 ft | 469 kts | 191° |
| 2026-04-16 15:07 | 41.37018 | 3.80622 | 33261 ft | 460 kts | 191° |
| 2026-04-16 15:08 | 41.33932 | 3.79922 | 32976 ft | 450 kts | 191° |
| 2026-04-16 15:08 | 41.30868 | 3.79227 | 32591 ft | 445 kts | 191° |
| 2026-04-16 15:08 | 41.27819 | 3.78535 | 32059 ft | 442 kts | 191° |
| 2026-04-16 15:08 | 41.24799 | 3.77849 | 31543 ft | 439 kts | 191° |
| 2026-04-16 15:09 | 41.21792 | 3.77168 | 31017 ft | 437 kts | 191° |
| 2026-04-16 15:09 | 41.18793 | 3.76495 | 30473 ft | 435 kts | 189° |
| 2026-04-16 15:09 | 41.15775 | 3.76222 | 29893 ft | 434 kts | 179° |
| 2026-04-16 15:09 | 41.12775 | 3.76566 | 29190 ft | 433 kts | 169° |
| 2026-04-16 15:10 | 41.09886 | 3.77513 | 28455 ft | 433 kts | 163° |
| 2026-04-16 15:10 | 41.07002 | 3.78640 | 27776 ft | 431 kts | 163° |
| 2026-04-16 15:10 | 41.04127 | 3.79740 | 27177 ft | 428 kts | 163° |
| 2026-04-16 15:10 | 41.01270 | 3.80792 | 26632 ft | 424 kts | 163° |
| 2026-04-16 15:11 | 40.98439 | 3.81816 | 26093 ft | 420 kts | 163° |
| 2026-04-16 15:11 | 40.95636 | 3.82826 | 25562 ft | 416 kts | 164° |
| 2026-04-16 15:11 | 40.92854 | 3.83827 | 25033 ft | 412 kts | 164° |
| 2026-04-16 15:11 | 40.90095 | 3.84820 | 24496 ft | 409 kts | 164° |
| 2026-04-16 15:12 | 40.87355 | 3.85807 | 23957 ft | 406 kts | 164° |
| 2026-04-16 15:12 | 40.84635 | 3.86787 | 23363 ft | 404 kts | 164° |
| 2026-04-16 15:12 | 40.81936 | 3.87759 | 22780 ft | 400 kts | 164° |
| 2026-04-16 15:12 | 40.79268 | 3.88719 | 22230 ft | 395 kts | 164° |
| 2026-04-16 15:13 | 40.76628 | 3.89668 | 21696 ft | 391 kts | 164° |
| 2026-04-16 15:13 | 40.74012 | 3.90607 | 21175 ft | 387 kts | 164° |
| 2026-04-16 15:13 | 40.71427 | 3.91536 | 20654 ft | 383 kts | 164° |
| 2026-04-16 15:13 | 40.68863 | 3.92455 | 20142 ft | 380 kts | 164° |
| 2026-04-16 15:14 | 40.66354 | 3.93354 | 19638 ft | 377 kts | 165° |
| 2026-04-16 15:14 | 40.63832 | 3.94258 | 19133 ft | 374 kts | 165° |
| 2026-04-16 15:14 | 40.61328 | 3.95154 | 18604 ft | 372 kts | 165° |
| 2026-04-16 15:14 | 40.58829 | 3.96048 | 18028 ft | 370 kts | 165° |
| 2026-04-16 15:15 | 40.56353 | 3.96932 | 17479 ft | 367 kts | 165° |
| 2026-04-16 15:15 | 40.53900 | 3.97808 | 16962 ft | 363 kts | 165° |
| 2026-04-16 15:15 | 40.51474 | 3.98673 | 16447 ft | 359 kts | 165° |
| 2026-04-16 15:15 | 40.49079 | 3.99526 | 16042 ft | 353 kts | 165° |
| 2026-04-16 15:16 | 40.46731 | 4.00361 | 15740 ft | 346 kts | 165° |
| 2026-04-16 15:16 | 40.44417 | 4.01182 | 15449 ft | 344 kts | 165° |
| 2026-04-16 15:16 | 40.42107 | 4.02002 | 15160 ft | 343 kts | 164° |
| 2026-04-16 15:16 | 40.39798 | 4.02821 | 14868 ft | 344 kts | 164° |
| 2026-04-16 15:17 | 40.37510 | 4.03632 | 14579 ft | 345 kts | 164° |
| 2026-04-16 15:17 | 40.35189 | 4.04454 | 14285 ft | 346 kts | 164° |
| 2026-04-16 15:17 | 40.32866 | 4.05276 | 13983 ft | 346 kts | 164° |
| 2026-04-16 15:17 | 40.30541 | 4.06099 | 13653 ft | 346 kts | 164° |
| 2026-04-16 15:18 | 40.28236 | 4.06915 | 13332 ft | 341 kts | 164° |
| 2026-04-16 15:18 | 40.25955 | 4.07720 | 13026 ft | 336 kts | 165° |
| 2026-04-16 15:18 | 40.23717 | 4.08511 | 12731 ft | 332 kts | 165° |
| 2026-04-16 15:18 | 40.21491 | 4.09296 | 12456 ft | 331 kts | 165° |
| 2026-04-16 15:19 | 40.19274 | 4.10078 | 12175 ft | 329 kts | 165° |
| 2026-04-16 15:19 | 40.17066 | 4.10857 | 11891 ft | 328 kts | 165° |
| 2026-04-16 15:19 | 40.14862 | 4.11633 | 11610 ft | 327 kts | 165° |
| 2026-04-16 15:19 | 40.13403 | 4.12146 | 11424 ft | 327 kts | 165° |
| 2026-04-16 15:20 | 40.11208 | 4.12918 | 11142 ft | 326 kts | 165° |
| 2026-04-16 15:20 | 40.08997 | 4.13461 | 10836 ft | 325 kts | 182° |
| 2026-04-16 15:20 | 40.06865 | 4.12652 | 10567 ft | 316 kts | 214° |
| 2026-04-16 15:20 | 40.05432 | 4.10625 | 10346 ft | 299 kts | 247° |
| 2026-04-16 15:21 | 40.04993 | 4.08088 | 10289 ft | 280 kts | 263° |
| 2026-04-16 15:21 | 40.04407 | 4.05680 | 10075 ft | 279 kts | 244° |
| 2026-04-16 15:21 | 40.03286 | 4.03615 | 9835 ft | 281 kts | 230° |
| 2026-04-16 15:21 | 40.01881 | 4.01832 | 9587 ft | 282 kts | 223° |
| 2026-04-16 15:22 | 40.00380 | 4.00181 | 9328 ft | 281 kts | 221° |
| 2026-04-16 15:22 | 39.98826 | 3.98638 | 9084 ft | 281 kts | 217° |
| 2026-04-16 15:22 | 39.97183 | 3.97263 | 8824 ft | 281 kts | 212° |
| 2026-04-16 15:22 | 39.95451 | 3.96084 | 8571 ft | 281 kts | 206° |
| 2026-04-16 15:23 | 39.93631 | 3.95143 | 8332 ft | 280 kts | 200° |
| 2026-04-16 15:23 | 39.91786 | 3.94322 | 8088 ft | 279 kts | 201° |
| 2026-04-16 15:23 | 39.89904 | 3.93682 | 7830 ft | 280 kts | 191° |
| 2026-04-16 15:23 | 39.87994 | 3.93371 | 7599 ft | 281 kts | 186° |
| 2026-04-16 15:24 | 39.86043 | 3.93294 | 7348 ft | 281 kts | 180° |
| 2026-04-16 15:24 | 39.84085 | 3.93452 | 7102 ft | 282 kts | 175° |
| 2026-04-16 15:24 | 39.82150 | 3.93838 | 6855 ft | 282 kts | 169° |
| 2026-04-16 15:24 | 39.80214 | 3.94459 | 6494 ft | 286 kts | 164° |
| 2026-04-16 15:25 | 39.78371 | 3.95287 | 6168 ft | 282 kts | 159° |
| 2026-04-16 15:25 | 39.76597 | 3.96328 | 5899 ft | 277 kts | 153° |
| 2026-04-16 15:25 | 39.74933 | 3.97550 | 5646 ft | 274 kts | 148° |
| 2026-04-16 15:25 | 39.73359 | 3.98952 | 5406 ft | 274 kts | 143° |
| 2026-04-16 15:26 | 39.71883 | 4.00526 | 5164 ft | 274 kts | 137° |
| 2026-04-16 15:26 | 39.70523 | 4.02252 | 4918 ft | 273 kts | 132° |
| 2026-04-16 15:26 | 39.69286 | 4.04123 | 4669 ft | 272 kts | 127° |
| 2026-04-16 15:26 | 39.68183 | 4.06119 | 4424 ft | 271 kts | 121° |
| 2026-04-16 15:27 | 39.67235 | 4.08186 | 4191 ft | 269 kts | 116° |
| 2026-04-16 15:27 | 39.66404 | 4.10353 | 3949 ft | 267 kts | 111° |
| 2026-04-16 15:27 | 39.65765 | 4.12607 | 3709 ft | 264 kts | 104° |
| 2026-04-16 15:27 | 39.65625 | 4.14895 | 3455 ft | 249 kts | 72° |
| 2026-04-16 15:28 | 39.66520 | 4.16618 | 3376 ft | 221 kts | 31° |
| 2026-04-16 15:28 | 39.67815 | 4.17500 | 3268 ft | 202 kts | 20° |
| 2026-04-16 15:28 | 39.69094 | 4.18055 | 3164 ft | 186 kts | 15° |
| 2026-04-16 15:28 | 39.70289 | 4.18482 | 3056 ft | 171 kts | 12° |
| 2026-04-16 15:29 | 39.71398 | 4.18778 | 2963 ft | 155 kts | 9° |
| 2026-04-16 15:29 | 39.72435 | 4.19008 | 2797 ft | 146 kts | 8° |
| 2026-04-16 15:29 | 39.73413 | 4.19230 | 2594 ft | 139 kts | 10° |
| 2026-04-16 15:29 | 39.74325 | 4.19452 | 2431 ft | 132 kts | 4° |
| 2026-04-16 15:30 | 39.75207 | 4.19600 | 2315 ft | 124 kts | 13° |
| 2026-04-16 15:30 | 39.76041 | 4.19701 | 2102 ft | 117 kts | 347° |
| 2026-04-16 15:30 | 39.76862 | 4.19627 | 1903 ft | 120 kts | 9° |
| 2026-04-16 15:30 | 39.77682 | 4.19923 | 1748 ft | 127 kts | 13° |
| 2026-04-16 15:31 | 39.78559 | 4.20265 | 1623 ft | 133 kts | 12° |
| 2026-04-16 15:31 | 39.79476 | 4.20541 | 1441 ft | 134 kts | 7° |
| 2026-04-16 15:31 | 39.80407 | 4.20705 | 1274 ft | 135 kts | 5° |
| 2026-04-16 15:31 | 39.81334 | 4.20877 | 1129 ft | 135 kts | 6° |
| 2026-04-16 15:32 | 39.82263 | 4.21040 | 941 ft | 131 kts | 6° |
| 2026-04-16 15:32 | 39.83141 | 4.21231 | 733 ft | 126 kts | 6° |
| 2026-04-16 15:32 | 39.84023 | 4.21405 | 548 ft | 130 kts | 6° |
| 2026-04-16 15:32 | 39.84913 | 4.21592 | 403 ft | 127 kts | 6° |
| 2026-04-16 15:33 | 39.85762 | 4.21772 | 302 ft | 115 kts | 6° |
| 2026-04-16 15:33 | 39.86455 | 4.21906 | 295 ft | 84 kts | 9° |
| 2026-04-16 15:33 | 39.86873 | 4.21991 | 306 ft | 39 kts | 8° |
| 2026-04-16 15:33 | 39.87117 | 4.22041 | 311 ft | 33 kts | 9° |
| 2026-04-16 15:34 | 39.87332 | 4.22092 | 310 ft | 30 kts | 22° |
| 2026-04-16 15:34 | 39.87383 | 4.22275 | 309 ft | 19 kts | 117° |
| 2026-04-16 15:34 | 39.87277 | 4.22312 | 309 ft | 16 kts | 193° |
| 2026-04-16 15:34 | 39.87167 | 4.22290 | 306 ft | 16 kts | 188° |
| 2026-04-16 15:35 | 39.87061 | 4.22269 | 304 ft | 16 kts | 189° |
| 2026-04-16 15:35 | 39.86938 | 4.22242 | 299 ft | 19 kts | 189° |
| 2026-04-16 15:35 | 39.86803 | 4.22214 | 297 ft | 19 kts | 188° |
| 2026-04-16 15:35 | 39.86671 | 4.22190 | 296 ft | 19 kts | 188° |
| 2026-04-16 15:36 | 39.86551 | 4.22184 | 296 ft | 12 kts | 143° |
| 2026-04-16 15:36 | 39.86538 | 4.22264 | 296 ft | 8 kts | 94° |
| 2026-04-16 15:36 | 39.86537 | 4.22339 | 295 ft | 8 kts | 97° |
| 2026-04-16 15:36 | 39.86528 | 4.22411 | 295 ft | 8 kts | 99° |
| 2026-04-16 15:37 | 39.86527 | 4.22422 | 296 ft | 0 kts | 99° |